sensor_id;sensor_type;location;lat;lon;timestamp;P1;durP1;ratioP1;P2;durP2;ratioP2
60714;SDS011;46564;53.096;8.246;2022-11-30T00:02:35;7.03;;;4.05;;
60714;SDS011;46564;53.096;8.246;2022-11-30T00:07:36;6.35;;;2.90;;
60714;SDS011;46564;53.096;8.246;2022-11-30T00:12:39;5.47;;;2.90;;
60714;SDS011;46564;53.096;8.246;2022-11-30T00:17:44;4.18;;;3.17;;
60714;SDS011;46564;53.096;8.246;2022-11-30T00:22:47;6.05;;;2.47;;
60714;SDS011;46564;53.096;8.246;2022-11-30T00:27:48;7.10;;;2.92;;
60714;SDS011;46564;53.096;8.246;2022-11-30T00:32:50;4.75;;;2.70;;
60714;SDS011;46564;53.096;8.246;2022-11-30T00:37:57;6.47;;;3.85;;
60714;SDS011;46564;53.096;8.246;2022-11-30T00:42:58;4.50;;;2.28;;
60714;SDS011;46564;53.096;8.246;2022-11-30T00:47:59;4.75;;;2.97;;
60714;SDS011;46564;53.096;8.246;2022-11-30T00:53:01;6.10;;;3.40;;
60714;SDS011;46564;53.096;8.246;2022-11-30T00:58:02;6.35;;;2.97;;
60714;SDS011;46564;53.096;8.246;2022-11-30T01:03:06;8.15;;;3.55;;
60714;SDS011;46564;53.096;8.246;2022-11-30T01:08:08;4.18;;;1.90;;
60714;SDS011;46564;53.096;8.246;2022-11-30T01:13:11;4.93;;;2.53;;
60714;SDS011;46564;53.096;8.246;2022-11-30T01:18:13;5.55;;;3.08;;
60714;SDS011;46564;53.096;8.246;2022-11-30T01:23:15;5.68;;;3.33;;
60714;SDS011;46564;53.096;8.246;2022-11-30T01:28:16;5.68;;;2.90;;
60714;SDS011;46564;53.096;8.246;2022-11-30T01:33:19;5.60;;;3.53;;
60714;SDS011;46564;53.096;8.246;2022-11-30T01:38:20;4.03;;;2.58;;
60714;SDS011;46564;53.096;8.246;2022-11-30T01:43:35;4.70;;;2.97;;
60714;SDS011;46564;53.096;8.246;2022-11-30T01:48:41;4.78;;;2.72;;
60714;SDS011;46564;53.096;8.246;2022-11-30T01:53:43;2.05;;;1.75;;
60714;SDS011;46564;53.096;8.246;2022-11-30T01:58:44;4.57;;;2.63;;
60714;SDS011;46564;53.096;8.246;2022-11-30T02:03:48;4.63;;;2.65;;
60714;SDS011;46564;53.096;8.246;2022-11-30T02:08:56;5.15;;;2.25;;
60714;SDS011;46564;53.096;8.246;2022-11-30T02:24:14;2.55;;;1.98;;
60714;SDS011;46564;53.096;8.246;2022-11-30T02:29:24;5.10;;;2.35;;
60714;SDS011;46564;53.096;8.246;2022-11-30T02:34:40;6.30;;;3.93;;
60714;SDS011;46564;53.096;8.246;2022-11-30T02:39:43;4.72;;;3.15;;
60714;SDS011;46564;53.096;8.246;2022-11-30T02:44:46;5.30;;;2.58;;
60714;SDS011;46564;53.096;8.246;2022-11-30T02:55:19;3.83;;;2.40;;
60714;SDS011;46564;53.096;8.246;2022-11-30T03:00:21;4.13;;;2.65;;
60714;SDS011;46564;53.096;8.246;2022-11-30T03:05:22;4.18;;;2.80;;
60714;SDS011;46564;53.096;8.246;2022-11-30T03:10:24;8.25;;;3.03;;
60714;SDS011;46564;53.096;8.246;2022-11-30T03:15:25;6.47;;;2.67;;
60714;SDS011;46564;53.096;8.246;2022-11-30T03:20:27;2.08;;;1.35;;
60714;SDS011;46564;53.096;8.246;2022-11-30T03:25:28;7.30;;;3.90;;
60714;SDS011;46564;53.096;8.246;2022-11-30T03:30:30;4.32;;;2.22;;
60714;SDS011;46564;53.096;8.246;2022-11-30T03:35:31;8.30;;;4.95;;
60714;SDS011;46564;53.096;8.246;2022-11-30T03:40:35;6.50;;;3.85;;
60714;SDS011;46564;53.096;8.246;2022-11-30T03:45:37;4.63;;;3.40;;
60714;SDS011;46564;53.096;8.246;2022-11-30T03:50:38;5.40;;;2.67;;
60714;SDS011;46564;53.096;8.246;2022-11-30T03:55:41;3.88;;;2.20;;
60714;SDS011;46564;53.096;8.246;2022-11-30T04:00:43;6.20;;;2.85;;
60714;SDS011;46564;53.096;8.246;2022-11-30T04:05:45;5.03;;;3.03;;
60714;SDS011;46564;53.096;8.246;2022-11-30T04:10:49;4.50;;;1.98;;
60714;SDS011;46564;53.096;8.246;2022-11-30T04:15:52;5.82;;;2.40;;
60714;SDS011;46564;53.096;8.246;2022-11-30T04:20:55;3.33;;;1.85;;
60714;SDS011;46564;53.096;8.246;2022-11-30T04:25:58;4.97;;;2.38;;
60714;SDS011;46564;53.096;8.246;2022-11-30T04:31:00;5.15;;;2.92;;
60714;SDS011;46564;53.096;8.246;2022-11-30T04:36:03;4.40;;;2.65;;
60714;SDS011;46564;53.096;8.246;2022-11-30T04:41:06;5.07;;;2.95;;
60714;SDS011;46564;53.096;8.246;2022-11-30T04:46:08;4.80;;;2.53;;
60714;SDS011;46564;53.096;8.246;2022-11-30T04:51:10;6.55;;;3.38;;
60714;SDS011;46564;53.096;8.246;2022-11-30T04:56:12;9.95;;;3.30;;
60714;SDS011;46564;53.096;8.246;2022-11-30T05:01:13;4.30;;;2.40;;
60714;SDS011;46564;53.096;8.246;2022-11-30T05:06:15;5.72;;;2.92;;
60714;SDS011;46564;53.096;8.246;2022-11-30T05:11:17;3.47;;;2.35;;
60714;SDS011;46564;53.096;8.246;2022-11-30T05:16:18;5.55;;;2.72;;
60714;SDS011;46564;53.096;8.246;2022-11-30T05:21:20;5.60;;;2.85;;
60714;SDS011;46564;53.096;8.246;2022-11-30T05:26:22;5.47;;;3.15;;
60714;SDS011;46564;53.096;8.246;2022-11-30T05:31:23;9.60;;;3.22;;
60714;SDS011;46564;53.096;8.246;2022-11-30T05:36:25;4.10;;;2.80;;
60714;SDS011;46564;53.096;8.246;2022-11-30T05:41:26;5.95;;;3.20;;
60714;SDS011;46564;53.096;8.246;2022-11-30T05:46:28;6.32;;;3.97;;
60714;SDS011;46564;53.096;8.246;2022-11-30T05:51:29;4.97;;;2.95;;
60714;SDS011;46564;53.096;8.246;2022-11-30T05:56:31;4.88;;;2.58;;
60714;SDS011;46564;53.096;8.246;2022-11-30T06:01:32;6.38;;;3.55;;
60714;SDS011;46564;53.096;8.246;2022-11-30T06:06:34;1.45;;;1.25;;
60714;SDS011;46564;53.096;8.246;2022-11-30T06:11:36;3.17;;;2.10;;
60714;SDS011;46564;53.096;8.246;2022-11-30T06:16:38;4.32;;;2.72;;
60714;SDS011;46564;53.096;8.246;2022-11-30T06:21:41;4.22;;;2.38;;
60714;SDS011;46564;53.096;8.246;2022-11-30T06:26:42;5.18;;;3.60;;
60714;SDS011;46564;53.096;8.246;2022-11-30T06:31:44;3.45;;;2.55;;
60714;SDS011;46564;53.096;8.246;2022-11-30T06:36:46;4.25;;;2.10;;
60714;SDS011;46564;53.096;8.246;2022-11-30T06:41:47;3.58;;;1.98;;
60714;SDS011;46564;53.096;8.246;2022-11-30T06:46:54;4.45;;;2.90;;
60714;SDS011;46564;53.096;8.246;2022-11-30T06:51:56;3.85;;;2.90;;
60714;SDS011;46564;53.096;8.246;2022-11-30T06:56:57;5.72;;;3.22;;
60714;SDS011;46564;53.096;8.246;2022-11-30T07:01:59;5.72;;;3.08;;
60714;SDS011;46564;53.096;8.246;2022-11-30T07:07:08;8.27;;;3.17;;
60714;SDS011;46564;53.096;8.246;2022-11-30T07:12:09;6.97;;;3.53;;
60714;SDS011;46564;53.096;8.246;2022-11-30T07:17:11;7.85;;;4.43;;
60714;SDS011;46564;53.096;8.246;2022-11-30T07:22:13;6.75;;;3.58;;
60714;SDS011;46564;53.096;8.246;2022-11-30T07:27:14;7.47;;;4.15;;
60714;SDS011;46564;53.096;8.246;2022-11-30T07:32:16;7.60;;;4.25;;
60714;SDS011;46564;53.096;8.246;2022-11-30T07:37:18;5.75;;;3.88;;
60714;SDS011;46564;53.096;8.246;2022-11-30T07:42:19;5.07;;;3.17;;
60714;SDS011;46564;53.096;8.246;2022-11-30T07:47:22;5.80;;;3.42;;
60714;SDS011;46564;53.096;8.246;2022-11-30T07:52:24;4.10;;;2.50;;
60714;SDS011;46564;53.096;8.246;2022-11-30T07:57:26;7.10;;;3.85;;
60714;SDS011;46564;53.096;8.246;2022-11-30T08:02:27;5.10;;;3.13;;
60714;SDS011;46564;53.096;8.246;2022-11-30T08:07:29;10.77;;;3.30;;
60714;SDS011;46564;53.096;8.246;2022-11-30T08:12:31;5.50;;;3.80;;
60714;SDS011;46564;53.096;8.246;2022-11-30T08:17:32;3.30;;;2.00;;
60714;SDS011;46564;53.096;8.246;2022-11-30T08:22:34;5.13;;;3.17;;
60714;SDS011;46564;53.096;8.246;2022-11-30T08:27:36;4.00;;;3.05;;
60714;SDS011;46564;53.096;8.246;2022-11-30T08:32:37;6.22;;;3.85;;
60714;SDS011;46564;53.096;8.246;2022-11-30T08:37:39;4.80;;;3.08;;
60714;SDS011;46564;53.096;8.246;2022-11-30T08:42:40;4.65;;;2.10;;
60714;SDS011;46564;53.096;8.246;2022-11-30T08:47:42;5.68;;;2.97;;
60714;SDS011;46564;53.096;8.246;2022-11-30T08:52:43;5.10;;;2.90;;
60714;SDS011;46564;53.096;8.246;2022-11-30T08:57:45;4.15;;;2.38;;
60714;SDS011;46564;53.096;8.246;2022-11-30T09:02:46;9.60;;;4.57;;
60714;SDS011;46564;53.096;8.246;2022-11-30T09:07:48;3.97;;;2.90;;
60714;SDS011;46564;53.096;8.246;2022-11-30T09:12:50;4.38;;;2.70;;
60714;SDS011;46564;53.096;8.246;2022-11-30T09:17:51;7.50;;;4.15;;
60714;SDS011;46564;53.096;8.246;2022-11-30T09:22:53;6.50;;;3.05;;
60714;SDS011;46564;53.096;8.246;2022-11-30T09:27:54;9.43;;;4.85;;
60714;SDS011;46564;53.096;8.246;2022-11-30T09:32:58;5.70;;;3.83;;
60714;SDS011;46564;53.096;8.246;2022-11-30T09:38:00;7.43;;;3.45;;
60714;SDS011;46564;53.096;8.246;2022-11-30T09:43:16;7.85;;;4.72;;
60714;SDS011;46564;53.096;8.246;2022-11-30T09:48:32;15.23;;;4.60;;
60714;SDS011;46564;53.096;8.246;2022-11-30T09:53:43;7.18;;;2.88;;
60714;SDS011;46564;53.096;8.246;2022-11-30T09:58:47;10.38;;;4.95;;
60714;SDS011;46564;53.096;8.246;2022-11-30T10:03:56;7.95;;;5.13;;
60714;SDS011;46564;53.096;8.246;2022-11-30T10:09:02;9.35;;;4.50;;
60714;SDS011;46564;53.096;8.246;2022-11-30T10:30:29;8.10;;;5.05;;
60714;SDS011;46564;53.096;8.246;2022-11-30T10:41:17;5.00;;;3.45;;
60714;SDS011;46564;53.096;8.246;2022-11-30T10:46:25;7.07;;;4.15;;
60714;SDS011;46564;53.096;8.246;2022-11-30T10:51:31;9.18;;;4.75;;
60714;SDS011;46564;53.096;8.246;2022-11-30T10:56:36;9.05;;;5.60;;
60714;SDS011;46564;53.096;8.246;2022-11-30T11:01:38;9.23;;;5.35;;
60714;SDS011;46564;53.096;8.246;2022-11-30T11:06:42;6.00;;;3.53;;
60714;SDS011;46564;53.096;8.246;2022-11-30T11:11:47;12.00;;;5.25;;
60714;SDS011;46564;53.096;8.246;2022-11-30T11:16:58;9.75;;;5.55;;
60714;SDS011;46564;53.096;8.246;2022-11-30T11:22:25;6.55;;;4.53;;
60714;SDS011;46564;53.096;8.246;2022-11-30T11:27:30;6.97;;;3.70;;
60714;SDS011;46564;53.096;8.246;2022-11-30T11:32:34;8.45;;;3.63;;
60714;SDS011;46564;53.096;8.246;2022-11-30T11:37:36;10.88;;;4.90;;
60714;SDS011;46564;53.096;8.246;2022-11-30T11:42:43;8.45;;;5.07;;
60714;SDS011;46564;53.096;8.246;2022-11-30T11:48:00;7.07;;;3.60;;
60714;SDS011;46564;53.096;8.246;2022-11-30T11:53:21;9.73;;;4.93;;
60714;SDS011;46564;53.096;8.246;2022-11-30T11:58:54;11.43;;;5.38;;
60714;SDS011;46564;53.096;8.246;2022-11-30T12:04:01;6.00;;;4.25;;
60714;SDS011;46564;53.096;8.246;2022-11-30T12:09:14;7.20;;;4.85;;
60714;SDS011;46564;53.096;8.246;2022-11-30T12:14:18;11.10;;;5.20;;
60714;SDS011;46564;53.096;8.246;2022-11-30T12:19:32;11.05;;;4.97;;
60714;SDS011;46564;53.096;8.246;2022-11-30T12:24:46;10.40;;;4.75;;
60714;SDS011;46564;53.096;8.246;2022-11-30T12:46:01;11.40;;;4.72;;
60714;SDS011;46564;53.096;8.246;2022-11-30T12:56:40;9.45;;;4.35;;
60714;SDS011;46564;53.096;8.246;2022-11-30T13:12:24;6.93;;;4.03;;
60714;SDS011;46564;53.096;8.246;2022-11-30T13:17:36;12.10;;;5.45;;
60714;SDS011;46564;53.096;8.246;2022-11-30T13:22:49;6.28;;;3.40;;
60714;SDS011;46564;53.096;8.246;2022-11-30T13:28:03;12.23;;;5.63;;
60714;SDS011;46564;53.096;8.246;2022-11-30T13:38:33;7.15;;;4.40;;
60714;SDS011;46564;53.096;8.246;2022-11-30T13:43:43;12.30;;;6.45;;
60714;SDS011;46564;53.096;8.246;2022-11-30T13:48:48;8.50;;;4.82;;
60714;SDS011;46564;53.096;8.246;2022-11-30T14:04:31;6.88;;;4.03;;
60714;SDS011;46564;53.096;8.246;2022-11-30T14:14:41;8.68;;;5.30;;
60714;SDS011;46564;53.096;8.246;2022-11-30T14:19:49;11.00;;;3.85;;
60714;SDS011;46564;53.096;8.246;2022-11-30T14:24:52;10.70;;;5.55;;
60714;SDS011;46564;53.096;8.246;2022-11-30T14:29:55;9.50;;;4.80;;
60714;SDS011;46564;53.096;8.246;2022-11-30T14:35:11;5.22;;;3.00;;
60714;SDS011;46564;53.096;8.246;2022-11-30T14:40:18;8.07;;;4.53;;
60714;SDS011;46564;53.096;8.246;2022-11-30T14:45:23;11.07;;;3.08;;
60714;SDS011;46564;53.096;8.246;2022-11-30T14:50:28;10.75;;;4.43;;
60714;SDS011;46564;53.096;8.246;2022-11-30T14:55:32;8.48;;;6.10;;
60714;SDS011;46564;53.096;8.246;2022-11-30T15:00:53;8.82;;;3.80;;
60714;SDS011;46564;53.096;8.246;2022-11-30T15:05:56;4.88;;;3.95;;
60714;SDS011;46564;53.096;8.246;2022-11-30T15:11:07;12.55;;;6.50;;
60714;SDS011;46564;53.096;8.246;2022-11-30T15:21:53;9.18;;;4.95;;
60714;SDS011;46564;53.096;8.246;2022-11-30T15:27:09;14.50;;;5.47;;
60714;SDS011;46564;53.096;8.246;2022-11-30T15:32:15;8.32;;;5.65;;
60714;SDS011;46564;53.096;8.246;2022-11-30T15:37:29;9.65;;;6.00;;
60714;SDS011;46564;53.096;8.246;2022-11-30T15:42:35;11.70;;;4.95;;
60714;SDS011;46564;53.096;8.246;2022-11-30T15:47:41;9.73;;;5.53;;
60714;SDS011;46564;53.096;8.246;2022-11-30T15:52:43;16.13;;;7.05;;
60714;SDS011;46564;53.096;8.246;2022-11-30T15:58:00;16.63;;;6.65;;
60714;SDS011;46564;53.096;8.246;2022-11-30T16:03:06;12.57;;;6.18;;
60714;SDS011;46564;53.096;8.246;2022-11-30T16:08:15;14.55;;;7.90;;
60714;SDS011;46564;53.096;8.246;2022-11-30T16:13:19;6.82;;;3.70;;
60714;SDS011;46564;53.096;8.246;2022-11-30T16:18:22;6.28;;;4.57;;
60714;SDS011;46564;53.096;8.246;2022-11-30T16:23:26;7.07;;;3.85;;
60714;SDS011;46564;53.096;8.246;2022-11-30T16:28:28;8.70;;;5.07;;
60714;SDS011;46564;53.096;8.246;2022-11-30T16:33:29;10.93;;;5.63;;
60714;SDS011;46564;53.096;8.246;2022-11-30T16:38:31;13.73;;;6.38;;
60714;SDS011;46564;53.096;8.246;2022-11-30T16:43:33;9.57;;;4.55;;
60714;SDS011;46564;53.096;8.246;2022-11-30T16:48:34;15.32;;;8.68;;
60714;SDS011;46564;53.096;8.246;2022-11-30T16:53:36;9.15;;;3.97;;
60714;SDS011;46564;53.096;8.246;2022-11-30T16:58:44;14.52;;;7.68;;
60714;SDS011;46564;53.096;8.246;2022-11-30T17:03:47;15.25;;;4.47;;
60714;SDS011;46564;53.096;8.246;2022-11-30T17:08:51;7.80;;;4.63;;
60714;SDS011;46564;53.096;8.246;2022-11-30T17:13:53;13.30;;;7.35;;
60714;SDS011;46564;53.096;8.246;2022-11-30T17:18:54;12.77;;;6.93;;
60714;SDS011;46564;53.096;8.246;2022-11-30T17:23:56;13.43;;;4.93;;
60714;SDS011;46564;53.096;8.246;2022-11-30T17:28:58;12.50;;;6.63;;
60714;SDS011;46564;53.096;8.246;2022-11-30T17:33:59;12.15;;;6.22;;
60714;SDS011;46564;53.096;8.246;2022-11-30T17:39:05;11.50;;;5.35;;
60714;SDS011;46564;53.096;8.246;2022-11-30T17:44:08;14.13;;;6.20;;
60714;SDS011;46564;53.096;8.246;2022-11-30T17:49:10;14.88;;;6.30;;
60714;SDS011;46564;53.096;8.246;2022-11-30T17:54:12;12.27;;;6.70;;
60714;SDS011;46564;53.096;8.246;2022-11-30T17:59:13;15.52;;;7.22;;
60714;SDS011;46564;53.096;8.246;2022-11-30T18:04:15;13.75;;;7.13;;
60714;SDS011;46564;53.096;8.246;2022-11-30T18:09:16;9.38;;;4.97;;
60714;SDS011;46564;53.096;8.246;2022-11-30T18:14:18;14.10;;;6.65;;
60714;SDS011;46564;53.096;8.246;2022-11-30T18:19:20;11.13;;;6.40;;
60714;SDS011;46564;53.096;8.246;2022-11-30T18:24:22;11.80;;;5.65;;
60714;SDS011;46564;53.096;8.246;2022-11-30T18:29:29;14.75;;;6.38;;
60714;SDS011;46564;53.096;8.246;2022-11-30T18:34:30;9.00;;;5.40;;
60714;SDS011;46564;53.096;8.246;2022-11-30T18:39:32;11.77;;;5.82;;
60714;SDS011;46564;53.096;8.246;2022-11-30T18:44:34;11.48;;;5.35;;
60714;SDS011;46564;53.096;8.246;2022-11-30T18:49:35;13.15;;;7.50;;
60714;SDS011;46564;53.096;8.246;2022-11-30T18:54:37;16.02;;;5.82;;
60714;SDS011;46564;53.096;8.246;2022-11-30T18:59:40;11.55;;;5.57;;
60714;SDS011;46564;53.096;8.246;2022-11-30T19:04:41;14.52;;;6.72;;
60714;SDS011;46564;53.096;8.246;2022-11-30T19:09:43;15.85;;;8.00;;
60714;SDS011;46564;53.096;8.246;2022-11-30T19:14:44;12.25;;;7.15;;
60714;SDS011;46564;53.096;8.246;2022-11-30T19:19:46;10.15;;;5.75;;
60714;SDS011;46564;53.096;8.246;2022-11-30T19:24:48;10.77;;;6.85;;
60714;SDS011;46564;53.096;8.246;2022-11-30T19:29:50;19.05;;;6.32;;
60714;SDS011;46564;53.096;8.246;2022-11-30T19:34:51;10.45;;;5.30;;
60714;SDS011;46564;53.096;8.246;2022-11-30T19:39:53;19.83;;;9.18;;
60714;SDS011;46564;53.096;8.246;2022-11-30T19:44:55;13.93;;;6.85;;
60714;SDS011;46564;53.096;8.246;2022-11-30T19:49:57;14.07;;;7.35;;
60714;SDS011;46564;53.096;8.246;2022-11-30T19:54:58;8.02;;;4.80;;
60714;SDS011;46564;53.096;8.246;2022-11-30T20:00:00;10.20;;;5.95;;
60714;SDS011;46564;53.096;8.246;2022-11-30T20:05:12;8.93;;;4.18;;
60714;SDS011;46564;53.096;8.246;2022-11-30T20:10:14;11.30;;;5.60;;
60714;SDS011;46564;53.096;8.246;2022-11-30T20:15:16;20.10;;;7.75;;
60714;SDS011;46564;53.096;8.246;2022-11-30T20:20:18;11.07;;;5.95;;
60714;SDS011;46564;53.096;8.246;2022-11-30T20:25:19;6.85;;;4.20;;
60714;SDS011;46564;53.096;8.246;2022-11-30T20:30:21;18.33;;;6.65;;
60714;SDS011;46564;53.096;8.246;2022-11-30T20:35:23;10.55;;;5.35;;
60714;SDS011;46564;53.096;8.246;2022-11-30T20:40:24;19.98;;;7.72;;
60714;SDS011;46564;53.096;8.246;2022-11-30T20:45:26;12.15;;;5.70;;
60714;SDS011;46564;53.096;8.246;2022-11-30T20:50:27;11.55;;;6.18;;
60714;SDS011;46564;53.096;8.246;2022-11-30T20:55:29;15.38;;;6.28;;
60714;SDS011;46564;53.096;8.246;2022-11-30T21:00:30;11.20;;;5.65;;
60714;SDS011;46564;53.096;8.246;2022-11-30T21:05:32;11.45;;;5.55;;
60714;SDS011;46564;53.096;8.246;2022-11-30T21:10:36;8.85;;;4.45;;
60714;SDS011;46564;53.096;8.246;2022-11-30T21:15:40;11.30;;;6.13;;
60714;SDS011;46564;53.096;8.246;2022-11-30T21:20:42;9.45;;;4.43;;
60714;SDS011;46564;53.096;8.246;2022-11-30T21:25:43;12.32;;;5.07;;
60714;SDS011;46564;53.096;8.246;2022-11-30T21:30:45;8.55;;;4.25;;
60714;SDS011;46564;53.096;8.246;2022-11-30T21:35:47;8.35;;;4.82;;
60714;SDS011;46564;53.096;8.246;2022-11-30T21:40:55;15.85;;;6.15;;
60714;SDS011;46564;53.096;8.246;2022-11-30T21:45:59;12.47;;;7.00;;
60714;SDS011;46564;53.096;8.246;2022-11-30T21:51:04;9.40;;;3.60;;
60714;SDS011;46564;53.096;8.246;2022-11-30T21:56:08;9.63;;;4.88;;
60714;SDS011;46564;53.096;8.246;2022-11-30T22:01:20;12.63;;;5.75;;
60714;SDS011;46564;53.096;8.246;2022-11-30T22:06:25;11.20;;;5.13;;
60714;SDS011;46564;53.096;8.246;2022-11-30T22:11:28;15.75;;;7.03;;
60714;SDS011;46564;53.096;8.246;2022-11-30T22:16:30;8.32;;;5.35;;
60714;SDS011;46564;53.096;8.246;2022-11-30T22:21:36;8.77;;;4.72;;
60714;SDS011;46564;53.096;8.246;2022-11-30T22:26:41;7.78;;;4.93;;
60714;SDS011;46564;53.096;8.246;2022-11-30T22:31:45;6.82;;;4.72;;
60714;SDS011;46564;53.096;8.246;2022-11-30T22:36:48;8.02;;;4.35;;
60714;SDS011;46564;53.096;8.246;2022-11-30T22:41:49;11.63;;;6.40;;
60714;SDS011;46564;53.096;8.246;2022-11-30T22:46:56;9.27;;;4.82;;
60714;SDS011;46564;53.096;8.246;2022-11-30T22:51:59;13.68;;;5.72;;
60714;SDS011;46564;53.096;8.246;2022-11-30T22:57:01;8.95;;;4.43;;
60714;SDS011;46564;53.096;8.246;2022-11-30T23:02:03;13.93;;;5.55;;
60714;SDS011;46564;53.096;8.246;2022-11-30T23:07:04;10.13;;;5.38;;
60714;SDS011;46564;53.096;8.246;2022-11-30T23:12:05;7.45;;;3.78;;
60714;SDS011;46564;53.096;8.246;2022-11-30T23:17:07;12.65;;;5.53;;
60714;SDS011;46564;53.096;8.246;2022-11-30T23:22:08;8.85;;;5.00;;
60714;SDS011;46564;53.096;8.246;2022-11-30T23:27:10;6.20;;;3.50;;
60714;SDS011;46564;53.096;8.246;2022-11-30T23:32:11;11.00;;;3.97;;
60714;SDS011;46564;53.096;8.246;2022-11-30T23:37:13;9.82;;;4.68;;
60714;SDS011;46564;53.096;8.246;2022-11-30T23:42:15;9.40;;;4.10;;
60714;SDS011;46564;53.096;8.246;2022-11-30T23:47:16;8.88;;;4.63;;
60714;SDS011;46564;53.096;8.246;2022-11-30T23:52:18;7.40;;;4.28;;
60714;SDS011;46564;53.096;8.246;2022-11-30T23:57:20;7.40;;;4.30;;
